Time;durP1;ratioP1;P1;durP2;ratioP2;P2;SDS_P1;SDS_P2;PMS_P1;PMS_P2;Temp;Humidity;BMP_temperature;BMP_pressure;BME280_temperature;BME280_humidity;BME280_pressure;Samples;Min_cycle;Max_cycle;Signal;HPM_P1;HPM_P2
2021/07/05 00:01:23;;;;;;;;;5.33;3.00;;;;;19.47;61.02;100730.22;4867350;29;46260;-89
2021/07/05 00:03:49;;;;;;;;;3.00;3.00;;;;;19.55;61.04;100737.16;4867642;29;45249;-89
2021/07/05 00:06:14;;;;;;;;;4.67;3.00;;;;;19.46;60.85;100729.34;4869123;29;45270;-89
2021/07/05 00:08:40;;;;;;;;;2.00;2.00;;;;;19.51;60.47;100729.25;4870835;29;45359;-89
2021/07/05 00:11:05;;;;;;;;;2.33;2.00;;;;;19.56;60.22;100740.72;4871126;29;45641;-89
2021/07/05 00:13:32;;;;;;;;;2.00;2.00;;;;;19.59;60.64;100745.09;4869913;29;45198;-89
2021/07/05 00:15:58;;;;;;;;;3.00;3.00;;;;;19.48;60.97;100719.50;4865101;29;45416;-88
2021/07/05 00:18:24;;;;;;;;;4.33;3.00;;;;;19.53;61.68;100720.31;4864667;29;45487;-89
2021/07/05 00:20:49;;;;;;;;;3.00;2.00;;;;;19.58;61.42;100730.91;4865662;29;46007;-90
2021/07/05 00:23:15;;;;;;;;;2.00;2.00;;;;;19.47;60.86;100712.44;4865839;29;45418;-88
2021/07/05 00:25:41;;;;;;;;;4.67;1.67;;;;;19.57;60.20;100750.44;4866030;29;45383;-90
2021/07/05 00:28:07;;;;;;;;;1.67;1.67;;;;;19.52;60.52;100742.53;4865894;29;45217;-89
2021/07/05 00:30:33;;;;;;;;;2.00;2.00;;;;;19.56;61.05;100746.91;4865961;29;45334;-89
2021/07/05 00:32:59;;;;;;;;;2.00;2.00;;;;;19.43;60.48;100735.63;4864302;29;45438;-89
2021/07/05 00:35:26;;;;;;;;;2.00;2.00;;;;;19.53;60.39;100748.75;4865806;29;45287;-89
2021/07/05 00:37:54;;;;;;;;;3.33;2.33;;;;;19.41;60.90;100736.56;4866026;29;45373;-89
2021/07/05 00:40:21;;;;;;;;;4.00;2.00;;;;;19.36;60.60;100731.31;4865612;29;45388;-89
2021/07/05 00:42:47;;;;;;;;;2.00;2.00;;;;;19.40;60.46;100726.78;4863971;29;45471;-89
2021/07/05 00:45:14;;;;;;;;;3.00;2.00;;;;;19.39;61.48;100725.94;4865532;29;45221;-89
2021/07/05 00:47:40;;;;;;;;;3.00;1.33;;;;;19.46;60.31;100742.66;4865860;29;45269;-89
2021/07/05 00:50:08;;;;;;;;;2.67;2.00;;;;;19.30;60.40;100705.66;4865131;29;46109;-89
2021/07/05 00:52:34;;;;;;;;;2.00;2.00;;;;;19.29;60.71;100719.03;4865429;29;45343;-88
2021/07/05 00:55:01;;;;;;;;;3.00;2.00;;;;;19.40;60.96;100743.66;4865261;29;45410;-89
2021/07/05 00:57:28;;;;;;;;;2.00;1.00;;;;;19.30;60.54;100734.97;4879752;29;45316;-89
2021/07/05 00:59:56;;;;;;;;;2.00;2.00;;;;;19.23;60.90;100735.13;4865086;29;45484;-89
2021/07/05 01:02:23;;;;;;;;;3.00;1.67;;;;;19.26;60.22;100725.28;4863731;29;45911;-88
2021/07/05 01:04:50;;;;;;;;;1.67;1.67;;;;;19.23;60.85;100704.00;4865360;29;45347;-89
2021/07/05 01:07:16;;;;;;;;;5.00;3.00;;;;;19.25;60.96;100694.19;4865160;29;45328;-90
2021/07/05 01:09:42;;;;;;;;;4.67;2.00;;;;;19.28;60.99;100715.47;4864859;29;45997;-89
2021/07/05 01:12:09;;;;;;;;;2.00;2.00;;;;;19.26;60.84;100698.63;4864661;29;45270;-89
2021/07/05 01:14:35;;;;;;;;;2.00;2.00;;;;;19.21;60.82;100700.50;4863878;29;45269;-89
2021/07/05 01:17:00;;;;;;;;;5.00;3.67;;;;;19.19;60.76;100695.22;4865325;29;45233;-88
2021/07/05 01:19:27;;;;;;;;;3.00;2.00;;;;;19.27;60.53;100697.72;4865086;29;46468;-89
2021/07/05 01:21:53;;;;;;;;;5.00;2.00;;;;;19.12;60.59;100660.69;4879016;29;45691;-89
2021/07/05 01:24:19;;;;;;;;;4.00;2.00;;;;;19.16;60.41;100665.94;4864839;29;45363;-89
2021/07/05 01:26:45;;;;;;;;;2.67;1.67;;;;;19.14;60.25;100661.53;4864965;29;45547;-89
2021/07/05 01:29:11;;;;;;;;;4.67;2.00;;;;;19.19;61.38;100686.31;4864620;29;46502;-89
2021/07/05 01:31:36;;;;;;;;;2.00;2.00;;;;;19.17;60.46;100682.81;4879663;29;45312;-89
2021/07/05 01:34:03;;;;;;;;;3.67;1.00;;;;;19.17;60.96;100677.50;4868201;29;45378;-89
2021/07/05 01:36:28;;;;;;;;;3.00;1.00;;;;;19.12;60.88;100671.34;4865702;29;45265;-89
2021/07/05 01:38:54;;;;;;;;;5.00;3.00;;;;;19.12;60.93;100668.69;4867251;29;46542;-89
2021/07/05 01:41:20;;;;;;;;;3.00;3.00;;;;;19.16;61.37;100681.06;4863865;29;46006;-89
2021/07/05 01:43:46;;;;;;;;;3.67;1.00;;;;;19.13;61.09;100689.06;4865515;29;45247;-89
2021/07/05 01:46:11;;;;;;;;;4.00;2.00;;;;;19.13;60.87;100702.41;4864584;29;45250;-89
2021/07/05 01:48:37;;;;;;;;;2.33;1.33;;;;;19.00;61.45;100677.78;4864251;29;45565;-90
2021/07/05 01:51:03;;;;;;;;;2.33;2.00;;;;;19.08;61.19;100694.50;4878943;29;45417;-89
2021/07/05 01:53:29;;;;;;;;;2.00;2.00;;;;;19.02;61.44;100682.16;4864080;29;45443;-90
2021/07/05 01:55:55;;;;;;;;;1.33;1.00;;;;;19.04;61.63;100699.00;4867494;29;45511;-88
2021/07/05 01:58:20;;;;;;;;;3.00;2.00;;;;;18.99;61.58;100690.22;4865814;29;45264;-89
2021/07/05 02:00:47;;;;;;;;;3.00;3.00;;;;;18.98;62.06;100667.16;4880049;29;45308;-90
2021/07/05 02:03:14;;;;;;;;;2.00;2.00;;;;;18.95;62.18;100668.09;4864052;29;45264;-88
2021/07/05 02:05:40;;;;;;;;;2.00;2.00;;;;;18.91;62.31;100681.50;4864368;29;45467;-89
2021/07/05 02:08:06;;;;;;;;;2.33;2.33;;;;;18.92;62.57;100694.78;4863718;29;48276;-89
2021/07/05 02:10:36;;;;;;;;;3.00;1.67;;;;;18.86;62.70;100693.13;4878830;29;45308;-89
2021/07/05 02:13:15;;;;;;;;;2.00;2.00;;;;;18.88;62.39;100687.75;4864105;29;45256;-89
2021/07/05 02:15:41;;;;;;;;;2.00;2.00;;;;;18.89;61.88;100696.63;4863210;29;45612;-88
2021/07/05 02:18:07;;;;;;;;;2.67;1.67;;;;;18.86;62.09;100702.88;4862439;29;48197;-89
2021/07/05 02:20:33;;;;;;;;;2.00;2.00;;;;;18.89;62.28;100704.63;4862744;29;45557;-88
2021/07/05 02:23:00;;;;;;;;;2.00;2.00;;;;;18.85;63.03;100699.34;4863759;29;45506;-89
2021/07/05 02:25:29;;;;;;;;;2.00;2.00;;;;;18.84;62.30;100691.38;4862627;29;45497;-89
2021/07/05 02:28:00;;;;;;;;;1.67;1.67;;;;;18.73;63.38;100678.25;4863819;29;45280;-88
2021/07/05 02:30:28;;;;;;;;;2.67;2.67;;;;;18.74;63.60;100686.22;4862486;29;45372;-89
2021/07/05 02:32:54;;;;;;;;;1.33;1.33;;;;;18.68;63.39;100675.66;4863890;29;45245;-89
2021/07/05 02:35:22;;;;;;;;;1.67;0.00;;;;;18.70;63.30;100680.97;4862612;29;45271;-89
2021/07/05 02:37:49;;;;;;;;;3.00;1.33;;;;;18.65;63.46;100672.19;4863984;29;45583;-88
2021/07/05 02:40:20;;;;;;;;;2.67;2.67;;;;;18.52;63.89;100644.00;4865107;29;45259;-89
2021/07/05 02:42:45;;;;;;;;;1.33;1.33;;;;;18.55;64.12;100647.53;4864832;29;45317;-88
2021/07/05 02:45:22;;;;;;;;;3.00;2.00;;;;;18.49;64.45;100637.84;4864908;29;45296;-89
2021/07/05 02:47:48;;;;;;;;;3.33;1.67;;;;;18.50;64.75;100636.94;4866052;29;46193;-89
2021/07/05 02:50:13;;;;;;;;;1.67;1.67;;;;;18.49;64.98;100643.16;4866477;29;45394;-89
2021/07/05 02:52:40;;;;;;;;;3.00;2.67;;;;;18.45;64.91;100630.81;4882152;29;45336;-89
2021/07/05 02:55:09;;;;;;;;;1.67;1.67;;;;;18.56;64.99;100650.16;4877608;29;44771;-88
2021/07/05 02:57:34;;;;;;;;;3.33;2.00;;;;;18.46;64.93;100621.94;4874952;29;45168;-89
2021/07/05 03:00:22;;;;;;;;;1.67;1.67;;;;;18.45;64.25;100634.34;4874054;29;45200;-89
2021/07/05 03:02:48;;;;;;;;;5.67;3.00;;;;;18.37;65.25;100617.63;4884994;29;45490;-88
2021/07/05 03:05:16;;;;;;;;;2.67;2.67;;;;;18.37;65.37;100621.19;4870301;29;45295;-90
2021/07/05 03:07:42;;;;;;;;;3.00;3.00;;;;;18.32;65.40;100604.41;4870060;29;45212;-90
2021/07/05 03:10:10;;;;;;;;;3.67;1.00;;;;;18.27;65.79;100595.63;4868450;29;45312;-89
2021/07/05 03:12:37;;;;;;;;;2.67;1.33;;;;;18.27;65.99;100600.97;4886714;29;45447;-89
2021/07/05 03:15:06;;;;;;;;;1.67;1.67;;;;;18.30;66.34;100610.69;4871779;29;45393;-89
2021/07/05 03:17:32;;;;;;;;;3.67;2.33;;;;;18.36;65.97;100624.75;4880077;29;45286;-88
2021/07/05 03:19:57;;;;;;;;;3.67;2.67;;;;;18.28;66.83;100613.34;4881657;29;45593;-89
2021/07/05 03:22:23;;;;;;;;;2.33;1.67;;;;;18.32;67.11;100624.84;4882507;29;45208;-88
2021/07/05 03:24:48;;;;;;;;;3.33;3.00;;;;;18.25;66.99;100621.41;4885903;29;45182;-90
2021/07/05 03:27:14;;;;;;;;;2.00;2.00;;;;;18.22;67.34;100617.00;4886984;29;48161;-90
2021/07/05 03:29:39;;;;;;;;;3.67;2.33;;;;;18.14;67.30;100601.13;4852589;29;46672;-89
2021/07/05 03:32:06;;;;;;;;;2.67;2.67;;;;;18.22;67.82;100613.44;4867066;29;45399;-89
2021/07/05 03:34:32;;;;;;;;;5.00;2.33;;;;;18.11;67.85;100595.84;4881020;29;45550;-89
2021/07/05 03:36:58;;;;;;;;;3.00;3.00;;;;;18.04;67.80;100580.91;4867858;29;46408;-89
2021/07/05 03:39:24;;;;;;;;;3.33;3.33;;;;;18.06;68.47;100595.91;4872683;29;45422;-89
2021/07/05 03:41:50;;;;;;;;;2.00;1.67;;;;;18.01;68.73;100586.25;4872663;29;45259;-89
2021/07/05 03:44:16;;;;;;;;;4.33;2.67;;;;;18.03;68.48;100593.31;4871449;29;45277;-89
2021/07/05 03:46:42;;;;;;;;;3.33;3.33;;;;;18.12;68.48;100605.59;4880608;29;48478;-89
2021/07/05 03:49:07;;;;;;;;;3.00;2.67;;;;;18.08;68.52;100593.25;4866206;29;45305;-89
2021/07/05 03:51:33;;;;;;;;;2.67;2.67;;;;;18.10;68.73;100598.53;4866669;29;45277;-90
2021/07/05 03:53:58;;;;;;;;;2.67;2.67;;;;;17.98;69.29;100583.66;4865450;29;45403;-90
2021/07/05 03:56:24;;;;;;;;;3.67;2.67;;;;;18.02;68.68;100580.06;4865306;29;47040;-89
2021/07/05 03:58:50;;;;;;;;;2.67;2.67;;;;;17.91;69.65;100562.50;4866182;29;45318;-89
2021/07/05 04:01:15;;;;;;;;;3.67;3.67;;;;;17.98;69.68;100573.88;4865210;29;45318;-90
2021/07/05 04:03:41;;;;;;;;;2.67;2.67;;;;;17.96;69.29;100559.72;4880505;29;45411;-89
2021/07/05 04:06:06;;;;;;;;;3.67;3.67;;;;;17.91;69.71;100541.22;4866317;29;46491;-89
2021/07/05 04:08:34;;;;;;;;;6.00;3.00;;;;;17.93;69.96;100539.41;4864880;29;45381;-89
2021/07/05 04:11:00;;;;;;;;;4.67;4.67;;;;;18.01;70.21;100541.06;4867474;29;45408;-89
2021/07/05 04:13:27;;;;;;;;;4.33;3.33;;;;;17.99;70.13;100546.41;4868385;29;45412;-89
2021/07/05 04:15:53;;;;;;;;;5.33;4.33;;;;;18.06;69.54;100541.88;4880451;29;47569;-89
2021/07/05 04:18:19;;;;;;;;;3.00;3.00;;;;;17.94;70.11;100525.19;4864350;29;45250;-89
2021/07/05 04:20:44;;;;;;;;;5.67;2.67;;;;;18.03;70.00;100540.13;4865881;29;45269;-89
2021/07/05 04:23:10;;;;;;;;;5.00;4.00;;;;;17.94;70.18;100533.19;4865995;29;45379;-89
2021/07/05 04:25:36;;;;;;;;;4.00;3.00;;;;;17.98;70.52;100531.34;4880121;29;47048;-89
2021/07/05 04:28:03;;;;;;;;;4.33;3.00;;;;;18.01;70.56;100536.63;4865948;29;45323;-91
2021/07/05 04:30:29;;;;;;;;;4.33;3.00;;;;;17.90;70.23;100534.13;4865815;29;45374;-90
2021/07/05 04:32:56;;;;;;;;;1.67;1.67;;;;;18.03;70.12;100547.22;4864509;29;45447;-89
2021/07/05 04:35:21;;;;;;;;;3.00;3.00;;;;;17.87;69.93;100517.34;4865338;29;45491;-89
2021/07/05 04:37:49;;;;;;;;;4.00;3.00;;;;;17.81;70.32;100515.66;4864107;29;45720;-90
2021/07/05 04:40:18;;;;;;;;;2.67;2.67;;;;;17.98;70.14;100543.78;4865752;29;45242;-88
2021/07/05 04:42:44;;;;;;;;;4.00;2.33;;;;;17.87;70.46;100523.56;4865602;29;45447;-88
2021/07/05 04:45:12;;;;;;;;;5.00;3.00;;;;;17.97;70.47;100545.56;4863962;29;48036;-89
2021/07/05 04:47:38;;;;;;;;;2.67;2.67;;;;;17.85;70.14;100529.78;4879414;29;45969;-91
2021/07/05 04:50:04;;;;;;;;;4.00;2.33;;;;;17.80;70.38;100509.47;4863999;29;45252;-89
2021/07/05 04:52:30;;;;;;;;;4.00;3.00;;;;;17.91;70.30;100514.63;4865839;29;45316;-89
2021/07/05 04:54:55;;;;;;;;;3.00;3.00;;;;;17.82;70.04;100486.41;4881870;29;46396;-91
2021/07/05 04:57:21;;;;;;;;;3.00;3.00;;;;;17.77;70.39;100464.31;4885688;29;44693;-89
2021/07/05 05:00:03;;;;;;;;;2.67;2.00;;;;;17.77;70.71;100455.47;4867262;29;45553;-90
2021/07/05 05:02:47;;;;;;;;;2.00;2.00;;;;;17.82;70.07;100448.28;4884391;29;45311;-90
2021/07/05 05:05:13;;;;;;;;;3.33;1.67;;;;;17.81;70.70;100449.19;4866242;29;45318;-92
2021/07/05 05:07:43;;;;;;;;;1.33;1.33;;;;;17.76;70.63;100436.00;4866206;29;45310;-90
2021/07/05 05:10:18;;;;;;;;;1.67;1.33;;;;;17.90;70.29;100465.00;4864930;29;45468;-90
2021/07/05 05:12:48;;;;;;;;;2.33;2.33;;;;;17.76;70.81;100443.97;4866322;29;45480;-91
2021/07/05 05:15:17;;;;;;;;;3.00;1.33;;;;;17.74;70.69;100437.81;4880172;29;47250;-91
2021/07/05 05:17:43;;;;;;;;;1.33;1.33;;;;;17.87;69.89;100454.44;4865849;29;45343;-90
2021/07/05 05:20:12;;;;;;;;;1.67;0.67;;;;;17.81;70.62;100444.75;4866509;29;45348;-90
2021/07/05 05:22:49;;;;;;;;;3.00;1.00;;;;;17.80;70.39;100437.69;4863846;29;45433;-90
2021/07/05 05:25:16;;;;;;;;;0.67;0.67;;;;;17.82;70.50;100438.53;4865295;29;46150;-91
2021/07/05 05:27:41;;;;;;;;;1.00;1.00;;;;;17.74;71.12;100426.28;4863995;29;45665;-91
2021/07/05 05:30:10;;;;;;;;;1.67;0.67;;;;;17.89;71.12;100457.03;4863891;29;45345;-91
2021/07/05 05:32:36;;;;;;;;;2.00;2.00;;;;;17.76;70.69;100440.44;4880080;29;45624;-90
2021/07/05 05:35:04;;;;;;;;;4.00;3.00;;;;;17.78;70.60;100433.31;4865012;29;46189;-90
2021/07/05 05:37:29;;;;;;;;;2.67;2.67;;;;;17.77;70.35;100428.88;4864078;29;45348;-90
2021/07/05 05:39:55;;;;;;;;;2.33;2.33;;;;;17.80;70.93;100429.72;4864767;29;45242;-90
2021/07/05 05:42:20;;;;;;;;;2.67;2.67;;;;;17.86;70.86;100443.78;4879576;29;45415;-91
2021/07/05 05:44:46;;;;;;;;;5.00;4.33;;;;;17.81;71.04;100439.44;4896219;29;46861;-90
2021/07/05 05:47:12;;;;;;;;;3.00;3.00;;;;;17.93;71.12;100456.09;4875708;29;45333;-90
2021/07/05 05:49:38;;;;;;;;;4.00;4.00;;;;;17.88;71.67;100457.94;4865760;29;45334;-90
2021/07/05 05:52:04;;;;;;;;;2.33;2.33;;;;;17.87;70.02;100458.84;4865710;29;45318;-89
2021/07/05 05:54:29;;;;;;;;;5.33;3.33;;;;;17.91;71.41;100472.09;4879306;29;48170;-91
2021/07/05 05:56:55;;;;;;;;;5.67;3.67;;;;;17.97;70.66;100478.19;4863813;29;45731;-90
2021/07/05 05:59:20;;;;;;;;;3.67;3.33;;;;;17.82;70.65;100461.59;4864778;29;45445;-90
2021/07/05 06:01:53;;;;;;;;;3.33;3.33;;;;;17.87;71.06;100469.50;4879263;29;45508;-90
2021/07/05 06:04:19;;;;;;;;;4.00;4.00;;;;;17.99;71.25;100481.69;4863308;29;46049;-90
2021/07/05 06:06:45;;;;;;;;;3.67;3.67;;;;;17.94;71.31;100465.81;4863228;29;45638;-90
2021/07/05 06:09:13;;;;;;;;;6.67;5.00;;;;;17.96;70.85;100468.47;4863495;29;45389;-91
2021/07/05 06:11:40;;;;;;;;;6.00;5.67;;;;;17.94;70.72;100466.69;4864285;29;45289;-90
2021/07/05 06:14:09;;;;;;;;;5.67;4.33;;;;;18.00;70.64;100472.81;4878740;29;47351;-91
2021/07/05 06:16:36;;;;;;;;;4.33;4.33;;;;;18.04;69.51;100469.19;4864756;29;45382;-91
2021/07/05 06:19:02;;;;;;;;;4.67;4.33;;;;;17.94;70.79;100466.69;4863453;29;45344;-90
2021/07/05 06:21:27;;;;;;;;;6.00;6.00;;;;;17.91;70.42;100455.25;4878871;29;45409;-90
2021/07/05 06:23:57;;;;;;;;;4.67;4.00;;;;;17.96;70.69;100468.47;4862767;29;48343;-90
2021/07/05 06:26:23;;;;;;;;;4.67;4.33;;;;;17.94;70.49;100465.81;4862968;29;45540;-90
2021/07/05 06:28:49;;;;;;;;;5.00;4.67;;;;;17.88;70.80;100456.16;4863705;29;45436;-91
2021/07/05 06:31:15;;;;;;;;;6.33;4.33;;;;;17.87;70.46;100445.56;4863402;29;45377;-91
2021/07/05 06:33:41;;;;;;;;;5.00;5.00;;;;;17.91;71.33;100448.16;4863170;29;47349;-89
2021/07/05 06:36:06;;;;;;;;;6.00;6.00;;;;;18.02;70.41;100469.19;4864876;29;45387;-90
2021/07/05 06:38:32;;;;;;;;;7.00;7.00;;;;;17.90;70.94;100427.75;4879921;29;45313;-90
2021/07/05 06:40:57;;;;;;;;;10.33;5.33;;;;;18.05;71.11;100447.88;4866914;29;45477;-90
2021/07/05 06:43:23;;;;;;;;;6.00;6.00;;;;;18.09;71.30;100448.69;4866264;29;48007;-89
2021/07/05 06:45:49;;;;;;;;;9.67;7.33;;;;;18.09;70.29;100438.06;4868225;29;45233;-90
2021/07/05 06:48:14;;;;;;;;;6.67;6.67;;;;;18.19;71.29;100443.25;4867249;29;45335;-89
2021/07/05 06:50:40;;;;;;;;;8.67;8.67;;;;;18.25;71.33;100443.13;4870423;29;45259;-90
2021/07/05 06:53:07;;;;;;;;;9.33;8.33;;;;;18.34;71.72;100456.25;4869700;29;45255;-89
2021/07/05 06:55:33;;;;;;;;;8.00;7.00;;;;;18.32;71.43;100451.88;4882381;29;45425;-89
2021/07/05 06:57:59;;;;;;;;;8.33;8.33;;;;;18.34;71.51;100456.25;4867598;29;45413;-89
2021/07/05 07:00:27;;;;;;;;;9.67;7.33;;;;;18.37;70.78;100463.28;4868390;29;45300;-89
2021/07/05 07:02:54;;;;;;;;;8.00;8.00;;;;;18.43;71.45;100473.81;4867888;29;46567;-89
2021/07/05 07:05:21;;;;;;;;;8.00;8.00;;;;;18.33;70.08;100451.84;4882299;29;45451;-90
2021/07/05 07:07:50;;;;;;;;;8.00;8.00;;;;;18.46;70.16;100479.09;4885652;29;45229;-89
2021/07/05 07:10:18;;;;;;;;;8.67;7.00;;;;;18.47;70.33;100485.28;4869758;29;45623;-90
2021/07/05 07:12:50;;;;;;;;;8.00;6.67;;;;;18.41;70.66;100480.97;4883046;29;47454;-90
2021/07/05 07:15:20;;;;;;;;;7.67;6.67;;;;;18.36;70.73;100456.25;4881808;29;45811;-90
2021/07/05 07:20:31;;;;;;;;;8.00;8.00;;;;;18.43;71.04;100475.59;4869764;29;45258;-89
2021/07/05 07:22:56;;;;;;;;;9.00;7.67;;;;;18.49;70.74;100483.47;4869912;29;45257;-90
2021/07/05 07:25:22;;;;;;;;;11.67;8.00;;;;;18.40;70.78;100466.75;4873501;29;45477;-90
2021/07/05 07:27:48;;;;;;;;;10.67;10.33;;;;;18.46;69.75;100479.09;4879404;29;45494;-90
2021/07/05 07:30:14;;;;;;;;;11.00;10.33;;;;;18.47;70.75;100479.94;4906159;29;44769;-90
2021/07/05 07:32:41;;;;;;;;;11.00;10.00;;;;;18.42;70.91;100472.09;4906762;29;47577;-90
2021/07/05 07:35:10;;;;;;;;;7.67;7.33;;;;;18.45;70.63;100471.13;4885369;29;45406;-90
2021/07/05 07:37:37;;;;;;;;;9.00;9.00;;;;;18.47;71.01;100475.50;4878006;29;44703;-89
2021/07/05 07:40:21;;;;;;;;;8.33;8.33;;;;;18.52;70.33;100489.63;4867765;29;45171;-90
2021/07/05 07:42:47;;;;;;;;;10.33;9.67;;;;;18.46;71.09;100478.22;4866251;29;48082;-89
2021/07/05 07:45:15;;;;;;;;;8.33;7.33;;;;;18.45;71.07;100465.78;4883968;29;45363;-91
2021/07/05 07:47:40;;;;;;;;;7.33;7.00;;;;;18.51;71.10;100482.53;4878376;29;45304;-89
2021/07/05 07:50:08;;;;;;;;;6.67;6.67;;;;;18.64;70.78;100498.25;4882451;29;44763;-89
2021/07/05 07:52:34;;;;;;;;;6.67;6.67;;;;;18.55;70.33;100483.34;4878084;29;45551;-89
2021/07/05 07:55:00;;;;;;;;;6.00;6.00;;;;;18.58;70.54;100474.41;4866230;29;45695;-91
2021/07/05 07:57:26;;;;;;;;;9.00;8.00;;;;;18.60;70.83;100470.81;4865586;29;45489;-90
2021/07/05 07:59:51;;;;;;;;;6.00;6.00;;;;;18.65;71.00;100467.19;4881469;29;45504;-90
2021/07/05 08:02:17;;;;;;;;;10.33;8.33;;;;;18.66;71.15;100460.94;4882144;29;47098;-91
2021/07/05 08:04:42;;;;;;;;;9.67;8.00;;;;;18.61;70.35;100450.41;4868191;29;45435;-90
2021/07/05 08:07:08;;;;;;;;;8.00;8.00;;;;;18.73;70.44;100471.47;4881606;29;45431;-90
2021/07/05 08:09:34;;;;;;;;;10.00;8.00;;;;;18.81;70.53;100467.72;4881892;29;45583;-89
2021/07/05 08:12:00;;;;;;;;;6.00;6.00;;;;;18.74;70.62;100451.88;4873240;29;45366;-91
2021/07/05 08:14:26;;;;;;;;;5.33;5.33;;;;;18.82;69.71;100459.75;4876298;29;45284;-90
2021/07/05 08:16:51;;;;;;;;;6.33;6.33;;;;;18.91;70.24;100465.78;4884532;29;44765;-91
2021/07/05 08:19:17;;;;;;;;;13.33;7.00;;;;;18.84;70.30;100447.25;4872066;29;45457;-91
2021/07/05 08:21:42;;;;;;;;;6.33;4.33;;;;;18.97;70.70;100457.66;4866245;29;46343;-90
2021/07/05 08:24:08;;;;;;;;;5.33;5.33;;;;;19.06;70.06;100470.75;4865106;29;45782;-90
2021/07/05 08:26:35;;;;;;;;;6.00;5.33;;;;;19.10;70.42;100480.41;4865220;29;45337;-90
2021/07/05 08:29:01;;;;;;;;;4.33;4.33;;;;;19.08;70.00;100476.91;4866475;29;45228;-90
2021/07/05 08:31:27;;;;;;;;;7.00;4.00;;;;;19.28;69.71;100504.94;4865005;29;47169;-90
2021/07/05 08:33:53;;;;;;;;;4.00;4.00;;;;;19.27;69.61;100487.19;4865351;29;45946;-90
2021/07/05 08:36:20;;;;;;;;;4.67;4.67;;;;;19.25;68.52;100494.34;4866940;29;45403;-89
2021/07/05 08:38:46;;;;;;;;;3.33;3.00;;;;;19.31;69.56;100488.88;4867019;29;45384;-90
2021/07/05 08:41:12;;;;;;;;;3.00;3.00;;;;;19.32;69.33;100473.75;4866252;29;45412;-90
2021/07/05 08:43:43;;;;;;;;;3.33;3.00;;;;;19.40;69.75;100469.13;4866539;29;45296;-89
2021/07/05 08:46:09;;;;;;;;;2.33;2.00;;;;;19.64;69.13;100496.13;4880741;29;45446;-90
2021/07/05 08:48:40;;;;;;;;;3.67;2.33;;;;;19.69;67.98;100481.78;4867064;29;45576;-89
2021/07/05 08:51:10;;;;;;;;;3.00;2.00;;;;;19.71;68.39;100480.84;4883518;29;47452;-90
2021/07/05 08:53:40;;;;;;;;;1.00;1.00;;;;;19.82;68.64;100482.38;4869402;29;45356;-90
2021/07/05 08:56:07;;;;;;;;;2.67;2.00;;;;;19.76;68.40;100462.94;4868424;29;45487;-90
2021/07/05 08:58:32;;;;;;;;;2.33;2.33;;;;;19.78;68.36;100469.09;4880742;29;45276;-90
2021/07/05 09:00:58;;;;;;;;;2.00;2.00;;;;;19.91;68.87;100471.44;4865784;29;45449;-90
2021/07/05 09:03:25;;;;;;;;;5.33;1.67;;;;;20.01;68.20;100480.97;4865762;29;45443;-90
2021/07/05 09:06:14;;;;;;;;;4.00;2.33;;;;;20.02;68.56;100480.06;4880606;29;45442;-92
2021/07/05 09:08:45;;;;;;;;;3.00;1.00;;;;;20.01;68.00;100464.94;4880314;29;45536;-90
2021/07/05 09:11:16;;;;;;;;;2.33;2.00;;;;;20.05;67.81;100470.22;4864982;29;46819;-90
2021/07/05 09:13:49;;;;;;;;;2.67;2.00;;;;;20.14;67.93;100483.34;4879801;29;45312;-89
2021/07/05 09:16:35;;;;;;;;;4.00;2.33;;;;;20.06;66.96;100480.84;4867152;29;45313;-90
2021/07/05 09:19:03;;;;;;;;;2.00;2.00;;;;;20.12;67.07;100496.72;4870784;29;45526;-89
2021/07/05 09:21:30;;;;;;;;;2.00;2.00;;;;;20.06;67.72;100496.84;4868462;29;46447;-90
2021/07/05 09:24:06;;;;;;;;;2.00;2.00;;;;;20.11;67.89;100508.34;4882718;29;45498;-90
2021/07/05 09:26:43;;;;;;;;;3.00;3.00;;;;;20.00;68.02;100489.91;4867872;29;45457;-90
2021/07/05 09:29:14;;;;;;;;;2.00;2.00;;;;;20.12;67.81;100509.19;4886547;29;45232;-91
2021/07/05 09:31:48;;;;;;;;;2.67;2.00;;;;;20.10;68.03;100506.56;4865690;29;46439;-90
2021/07/05 09:34:38;;;;;;;;;2.67;2.00;;;;;20.15;68.15;100517.13;4872568;29;45350;-90
2021/07/05 09:37:20;;;;;;;;;2.00;2.00;;;;;20.17;68.36;100504.63;4875167;29;45368;-90
2021/07/05 09:40:05;;;;;;;;;1.33;1.33;;;;;20.18;67.78;100508.16;4878025;29;44842;-91
2021/07/05 09:42:42;;;;;;;;;2.00;2.00;;;;;20.14;67.61;100491.34;4875699;29;47985;-89
2021/07/05 09:45:14;;;;;;;;;1.67;1.67;;;;;20.19;66.89;100505.44;4882875;29;45443;-90
2021/07/05 09:47:40;;;;;;;;;1.00;1.00;;;;;20.19;68.00;100488.56;4886949;29;45356;-89
2021/07/05 09:50:16;;;;;;;;;1.00;1.00;;;;;20.21;67.21;100489.41;4874758;29;45269;-89
2021/07/05 09:52:43;;;;;;;;;1.00;1.00;;;;;20.25;67.62;100485.72;4876046;29;45479;-90
2021/07/05 09:55:16;;;;;;;;;1.00;1.00;;;;;20.22;66.97;100484.00;4887208;29;45293;-91
2021/07/05 09:57:48;;;;;;;;;1.00;1.00;;;;;20.26;66.78;100487.50;4870813;29;45298;-90
2021/07/05 10:00:25;;;;;;;;;2.67;1.00;;;;;20.31;66.96;100511.34;4874034;29;45478;-90
2021/07/05 10:03:04;;;;;;;;;1.00;1.00;;;;;20.29;66.46;100515.88;4869830;29;45427;-90
2021/07/05 10:05:44;;;;;;;;;1.00;1.00;;;;;20.19;66.48;100493.91;4879161;29;45796;-90
2021/07/05 10:08:12;;;;;;;;;1.00;1.00;;;;;20.20;65.91;100503.66;4878966;29;45378;-90
2021/07/05 10:10:44;;;;;;;;;2.00;1.00;;;;;20.23;66.45;100512.47;4863915;29;45303;-90
2021/07/05 10:13:12;;;;;;;;;1.67;1.67;;;;;20.26;65.97;100522.19;4864345;29;46402;-90
2021/07/05 10:15:39;;;;;;;;;1.00;1.00;;;;;20.28;66.39;100509.69;4878941;29;45899;-90
2021/07/05 10:18:05;;;;;;;;;1.00;1.00;;;;;20.34;65.98;100512.19;4879768;29;45289;-91
2021/07/05 10:20:36;;;;;;;;;0.67;0.67;;;;;20.41;65.76;100515.53;4864031;29;45587;-90
2021/07/05 10:23:04;;;;;;;;;1.00;1.00;;;;;20.35;65.71;100486.34;4863082;29;46397;-90
2021/07/05 10:25:32;;;;;;;;;1.33;1.00;;;;;20.48;65.82;100500.22;4864354;29;45409;-90
2021/07/05 10:27:59;;;;;;;;;2.00;1.00;;;;;20.49;65.82;100488.66;4878885;29;45431;-91
2021/07/05 10:30:25;;;;;;;;;2.00;1.00;;;;;20.69;65.41;100500.53;4878935;29;45462;-90
2021/07/05 10:32:51;;;;;;;;;1.00;1.00;;;;;20.74;66.55;100493.28;4878617;29;47602;-91
2021/07/05 10:35:22;;;;;;;;;2.00;1.00;;;;;20.87;65.59;100495.59;4883549;29;45437;-90
2021/07/05 10:37:59;;;;;;;;;2.67;2.00;;;;;21.03;65.15;100514.72;4878981;29;45492;-91
2021/07/05 10:40:38;;;;;;;;;3.00;2.00;;;;;21.00;64.28;100507.72;4878888;29;45503;-91
2021/07/05 10:43:04;;;;;;;;;2.67;2.00;;;;;21.09;64.36;100535.94;4864474;29;46164;-91
2021/07/05 10:45:51;;;;;;;;;1.33;1.33;;;;;21.16;64.50;100544.63;4878651;29;45281;-90
2021/07/05 10:48:36;;;;;;;;;1.67;1.67;;;;;21.16;64.43;100524.13;4864568;29;45399;-90
2021/07/05 10:51:03;;;;;;;;;1.00;1.00;;;;;21.37;64.76;100537.75;4848577;29;45262;-90
2021/07/05 10:53:37;;;;;;;;;1.00;1.00;;;;;21.61;63.98;100545.06;4865909;29;45477;-91
2021/07/05 10:56:22;;;;;;;;;1.00;1.00;;;;;21.67;64.51;100543.97;4865290;29;45367;-89
2021/07/05 10:58:48;;;;;;;;;1.00;1.00;;;;;21.66;62.68;100535.06;4865673;29;45474;-90
2021/07/05 11:01:16;;;;;;;;;1.33;1.00;;;;;21.63;63.76;100522.69;4865144;29;45331;-90
2021/07/05 11:03:41;;;;;;;;;2.00;1.00;;;;;21.72;62.98;100537.56;4870389;29;47187;-90
2021/07/05 11:06:25;;;;;;;;;2.00;2.00;;;;;21.69;63.56;100520.75;4878280;29;45462;-90
2021/07/05 11:08:53;;;;;;;;;2.00;2.00;;;;;21.62;62.65;100522.72;4879318;29;44716;-90
2021/07/05 11:11:31;;;;;;;;;2.00;2.00;;;;;21.66;60.95;100543.09;4893650;29;45499;-90
2021/07/05 11:14:22;;;;;;;;;1.00;1.00;;;;;21.65;60.48;100541.38;4874684;29;45541;-90
2021/07/05 11:17:10;;;;;;;;;1.00;1.00;;;;;21.83;60.78;100530.97;4867417;29;45265;-90
2021/07/05 11:19:41;;;;;;;;;1.00;1.00;;;;;22.03;61.73;100527.69;4865364;29;45181;-91
2021/07/05 11:22:33;;;;;;;;;1.00;1.00;;;;;22.24;61.64;100514.47;4865785;29;45341;-90
2021/07/05 11:25:08;;;;;;;;;2.00;2.00;;;;;22.53;60.87;100514.34;4808237;29;45536;-91
2021/07/05 11:27:39;;;;;;;;;2.33;1.33;;;;;22.76;59.68;100521.56;4810309;29;45598;-91
2021/07/05 11:30:14;;;;;;;;;2.00;2.00;;;;;22.89;59.20;100507.72;4810791;29;45307;-91
2021/07/05 11:32:54;;;;;;;;;1.00;1.00;;;;;22.99;59.10;100498.38;4811096;29;45538;-91